This is the latest recevied weather packets stored in our database for station/object WX2NJ-13. If no packets are shown the sender has not sent any weather packets the latest 1 day(s).
| Time | Temp. | Humidity | Pressure | Rain* | Wind** | Luminosity | Snow |
|---|---|---|---|---|---|---|---|
| 1778090584 | 21.11° C | 65% | 1009 hPa | 0 mm | 1.34 m/s, 180° | - | - |
| 1778089984 | 21.11° C | 65% | 1009.2 hPa | 0 mm | 1.79 m/s, 155° | - | - |
| 1778087885 | 20.56° C | 70% | 1009.5 hPa | 0 mm | 1.34 m/s, 152° | - | - |
| 1778087285 | 20° C | 70% | 1009.7 hPa | 0 mm | 1.79 m/s, 203° | - | - |
| 1778085789 | 20° C | 69% | 1010.4 hPa | 0 mm | 1.34 m/s, 174° | - | - |
| 1778084890 | 20° C | 69% | 1010.8 hPa | 0 mm | 1.34 m/s, 165° | - | - |
| 1778083991 | 20° C | 68% | 1010.8 hPa | 0 mm | 1.34 m/s, 170° | - | - |
| 1778083391 | 20° C | 68% | 1010.9 hPa | 0 mm | 1.34 m/s, 59° | - | - |
| 1778083092 | 20° C | 68% | 1010.8 hPa | 0 mm | 1.34 m/s, 201° | - | - |
| 1778082492 | 20° C | 67% | 1010.8 hPa | 0 mm | 1.34 m/s, 186° | - | - |
| 1778081892 | 20° C | 67% | 1010.9 hPa | 0 mm | 1.79 m/s, 167° | - | - |
| 1778081593 | 20° C | 67% | 1010.9 hPa | 0 mm | 1.34 m/s, 181° | - | - |
| 1778080993 | 20° C | 67% | 1011 hPa | 0 mm | 1.34 m/s, 170° | - | - |
| 1778080094 | 20° C | 65% | 1011.1 hPa | 0 mm | 1.79 m/s, 159° | - | - |
| 1778078598 | 21.11° C | 64% | 1011 hPa | 0 mm | 2.24 m/s, 169° | - | - |
| 1778077699 | 21.11° C | 64% | 1011.2 hPa | 0 mm | 1.34 m/s, 207° | - | - |
| 1778076800 | 21.11° C | 63% | 1011.1 hPa | 0 mm | 1.34 m/s, 190° | - | - |
| 1778075901 | 21.67° C | 60% | 1011.2 hPa | 0 mm | 1.79 m/s, 190° | - | - |
| 1778075301 | 21.67° C | 62% | 1011.1 hPa | 0 mm | 1.34 m/s, 155° | - | - |
| 1778075002 | 21.67° C | 62% | 1011.2 hPa | 0 mm | 1.34 m/s, 166° | - | - |
| 1778074402 | 21.11° C | 62% | 1011.4 hPa | 0 mm | 1.34 m/s, 197° | - | - |
| 1778074103 | 21.11° C | 64% | 1011.4 hPa | 0 mm | 0.89 m/s, 166° | - | - |
| 1778073204 | 20.56° C | 66% | 1011.6 hPa | 0 mm | 1.34 m/s, 153° | - | - |
| 1778072604 | 20° C | 68% | 1011.5 hPa | 0 mm | 1.34 m/s, 167° | - | - |
| 1778072004 | 19.44° C | 69% | 1011.6 hPa | 0 mm | 0.89 m/s, 153° | - | - |
* Rain latest hour (hover to see other rain measurements)
** Current wind speed in m/s (hover to see current wind gust speed)